Time;durP1;ratioP1;P1;durP2;ratioP2;P2;SDS_P1;SDS_P2;PMS_P1;PMS_P2;Temp;Humidity;BMP_temperature;BMP_pressure;BME280_temperature;BME280_humidity;BME280_pressure;Samples;Min_cycle;Max_cycle;Signal;HPM_P1;HPM_P2
2024/01/12 00:02:10;;;;;;;38.20;20.90;;;;;;;-0.33;100.00;99738.65;105900;1257;71616;-74
2024/01/12 00:04:38;;;;;;;29.40;17.80;;;;;;;-0.33;100.00;99738.67;105824;1254;60558;-71
2024/01/12 00:07:06;;;;;;;35.30;19.60;;;;;;;-0.33;100.00;99745.71;105903;1251;60546;-72
2024/01/12 00:09:33;;;;;;;35.10;19.30;;;;;;;-0.31;100.00;99744.78;105883;1252;72625;-72
2024/01/12 00:12:01;;;;;;;35.30;20.20;;;;;;;-0.29;100.00;99749.00;105796;1255;64009;-72
2024/01/12 00:14:28;;;;;;;32.90;19.50;;;;;;;-0.23;100.00;99752.27;105811;1256;72649;-74
2024/01/12 00:16:56;;;;;;;33.80;19.20;;;;;;;-0.21;100.00;99754.63;105753;1257;60684;-72
2024/01/12 00:19:25;;;;;;;35.10;18.60;;;;;;;-0.26;100.00;99759.57;105900;1257;60514;-73
2024/01/12 00:21:54;;;;;;;31.10;16.80;;;;;;;-0.29;100.00;99768.23;105786;1256;72639;-73
2024/01/12 00:24:22;;;;;;;30.00;17.20;;;;;;;-0.29;100.00;99766.02;105836;1257;62326;-73
2024/01/12 00:26:51;;;;;;;28.80;17.30;;;;;;;-0.28;100.00;99772.52;105959;1256;72648;-74
2024/01/12 00:29:18;;;;;;;30.80;16.00;;;;;;;-0.28;100.00;99772.36;105999;1257;60549;-72
2024/01/12 00:31:46;;;;;;;27.80;15.80;;;;;;;-0.27;100.00;99777.46;105928;1256;60345;-73
2024/01/12 00:34:14;;;;;;;27.20;17.00;;;;;;;-0.26;100.00;99784.83;105864;1257;72606;-72
2024/01/12 00:36:42;;;;;;;25.10;16.70;;;;;;;-0.25;100.00;99790.81;105846;1257;63427;-72
2024/01/12 00:39:09;;;;;;;26.20;16.10;;;;;;;-0.22;100.00;99787.61;105743;1257;72642;-73
2024/01/12 00:41:37;;;;;;;25.90;14.90;;;;;;;-0.17;100.00;99790.08;105867;1251;60443;-71
2024/01/12 00:44:05;;;;;;;23.70;14.00;;;;;;;-0.13;100.00;99794.41;105895;1251;60517;-72
2024/01/12 00:46:33;;;;;;;23.80;13.60;;;;;;;-0.13;100.00;99797.52;105937;1251;73741;-73
2024/01/12 00:49:01;;;;;;;15.10;10.60;;;;;;;-0.17;100.00;99796.92;105954;1253;62332;-72
2024/01/12 00:51:29;;;;;;;14.00;9.40;;;;;;;-0.22;100.00;99809.61;105805;1254;71271;-72
2024/01/12 00:53:56;;;;;;;10.50;6.20;;;;;;;-0.29;100.00;99813.76;105900;1254;60529;-74
2024/01/12 00:56:24;;;;;;;11.20;6.10;;;;;;;-0.35;100.00;99818.41;105887;1255;60334;-73
2024/01/12 00:58:52;;;;;;;7.30;5.40;;;;;;;-0.38;100.00;99816.25;105846;1257;72631;-73
2024/01/12 01:01:20;;;;;;;5.60;4.00;;;;;;;-0.42;100.00;99826.14;105911;1257;63650;-72
2024/01/12 01:03:48;;;;;;;5.60;3.60;;;;;;;-0.43;100.00;99822.55;105945;1251;71958;-75
2024/01/12 01:06:16;;;;;;;4.80;2.70;;;;;;;-0.44;100.00;99827.23;105851;1257;60465;-73
2024/01/12 01:08:45;;;;;;;5.80;3.30;;;;;;;-0.48;100.00;99828.72;105792;1257;60693;-71
2024/01/12 01:11:14;;;;;;;3.30;2.20;;;;;;;-0.50;100.00;99834.09;105797;1252;72871;-73
2024/01/12 01:13:42;;;;;;;3.50;2.70;;;;;;;-0.51;100.00;99835.99;105811;1257;63505;-73
2024/01/12 01:16:10;;;;;;;2.70;2.10;;;;;;;-0.58;100.00;99837.23;105820;1255;74981;-74
2024/01/12 01:18:38;;;;;;;1.80;1.70;;;;;;;-0.66;100.00;99840.87;105911;1256;60612;-72
2024/01/12 01:21:05;;;;;;;3.10;1.30;;;;;;;-0.73;100.00;99843.81;105903;1251;60392;-72
2024/01/12 01:23:33;;;;;;;2.00;1.90;;;;;;;-0.83;100.00;99847.00;105746;1257;73849;-73
2024/01/12 01:26:01;;;;;;;1.40;1.30;;;;;;;-0.91;100.00;99851.11;105760;1251;62270;-75
2024/01/12 01:28:28;;;;;;;2.70;1.70;;;;;;;-0.93;100.00;99858.03;105736;1254;71249;-74
2024/01/12 01:30:56;;;;;;;3.40;1.50;;;;;;;-0.91;100.00;99857.80;105797;1251;60533;-73
2024/01/12 01:33:23;;;;;;;3.30;2.10;;;;;;;-0.89;100.00;99858.63;105755;1251;60549;-73
2024/01/12 01:35:51;;;;;;;3.30;1.70;;;;;;;-0.89;100.00;99856.21;105802;1257;73955;-75
2024/01/12 01:38:19;;;;;;;4.10;2.20;;;;;;;-0.89;100.00;99858.80;105810;1251;64321;-74
2024/01/12 01:40:46;;;;;;;2.30;1.60;;;;;;;-0.92;100.00;99862.84;105817;1251;71007;-73
2024/01/12 01:43:14;;;;;;;2.70;1.50;;;;;;;-0.96;100.00;99865.48;106017;1254;60529;-74
2024/01/12 01:45:41;;;;;;;3.30;1.80;;;;;;;-1.01;100.00;99872.82;105869;1251;60761;-74
2024/01/12 01:48:09;;;;;;;4.10;1.60;;;;;;;-1.06;100.00;99878.77;105726;1251;72633;-73
2024/01/12 01:50:37;;;;;;;2.10;1.50;;;;;;;-1.12;100.00;99887.33;105866;1251;62687;-73
2024/01/12 01:53:05;;;;;;;1.90;1.40;;;;;;;-1.16;100.00;99889.13;105885;1256;72708;-73
2024/01/12 01:55:33;;;;;;;1.30;1.20;;;;;;;-1.17;100.00;99902.02;105906;1251;60857;-75
2024/01/12 01:58:01;;;;;;;3.50;1.80;;;;;;;-1.23;100.00;99899.77;105824;1251;60732;-72
2024/01/12 02:00:28;;;;;;;3.70;1.20;;;;;;;-1.30;100.00;99911.94;105681;1256;72913;-74
2024/01/12 02:02:56;;;;;;;2.00;0.90;;;;;;;-1.37;100.00;99929.24;105818;1257;62271;-74
2024/01/12 02:05:23;;;;;;;0.50;0.50;;;;;;;-1.45;100.00;99947.41;105838;1254;72671;-74
2024/01/12 02:07:51;;;;;;;0.90;0.40;;;;;;;-1.60;100.00;99961.27;105767;1256;60459;-71
2024/01/12 02:10:19;;;;;;;0.30;0.30;;;;;;;-1.90;100.00;99960.48;105898;1256;60421;-71
2024/01/12 02:12:48;;;;;;;0.50;0.40;;;;;;;-2.19;100.00;99971.83;105913;1251;73838;-72
2024/01/12 02:15:17;;;;;;;0.30;0.30;;;;;;;-2.39;100.00;99976.29;105960;1255;63665;-73
2024/01/12 02:17:45;;;;;;;1.00;0.50;;;;;;;-2.55;100.00;99979.31;106268;1251;71885;-72
2024/01/12 02:20:13;;;;;;;0.90;0.50;;;;;;;-2.72;100.00;99981.98;107351;1254;60512;-72
2024/01/12 02:22:41;;;;;;;1.50;0.40;;;;;;;-2.83;100.00;99988.13;107783;1251;60670;-72
2024/01/12 02:25:09;;;;;;;2.40;0.50;;;;;;;-2.91;100.00;99997.66;108754;1251;72359;-72
2024/01/12 02:27:37;;;;;;;0.60;0.60;;;;;;;-3.00;100.00;99995.23;108365;1255;62425;-74
2024/01/12 02:30:05;;;;;;;0.50;0.50;;;;;;;-3.10;100.00;100006.66;105866;1251;72890;-74
2024/01/12 02:32:33;;;;;;;0.70;0.60;;;;;;;-3.20;100.00;100006.63;106023;1257;63316;-74
2024/01/12 02:35:00;;;;;;;1.10;0.50;;;;;;;-3.29;100.00;100013.42;105818;1255;61003;-73
2024/01/12 02:37:28;;;;;;;0.50;0.40;;;;;;;-3.33;100.00;100020.64;105897;1256;73811;-73
2024/01/12 02:39:55;;;;;;;2.20;0.50;;;;;;;-3.35;100.00;100019.80;105812;1256;63004;-73
2024/01/12 02:42:23;;;;;;;0.60;0.60;;;;;;;-3.35;100.00;100026.83;105818;1252;72426;-73
2024/01/12 02:44:50;;;;;;;1.30;0.90;;;;;;;-3.35;100.00;100031.94;105889;1254;60453;-73
2024/01/12 02:47:18;;;;;;;0.90;0.60;;;;;;;-3.41;100.00;100033.05;105763;1251;61019;-74
2024/01/12 02:49:45;;;;;;;1.40;0.70;;;;;;;-3.54;100.00;100049.77;105773;1251;72838;-74
2024/01/12 02:52:13;;;;;;;1.00;0.80;;;;;;;-3.67;100.00;100054.37;105780;1257;64014;-74
2024/01/12 02:54:40;;;;;;;1.20;1.00;;;;;;;-3.83;100.00;100061.02;105816;1256;71062;-73
2024/01/12 02:57:11;;;;;;;1.10;1.00;;;;;;;-3.95;100.00;100064.40;105666;1251;241132;-75
2024/01/12 03:01:41;;;;;;;2.00;1.30;;;;;;;-4.19;100.00;100076.73;102652;1287;604270;-74
2024/01/12 03:04:08;;;;;;;3.50;1.10;;;;;;;-4.32;100.00;100084.36;104854;1271;59169;-72
2024/01/12 03:06:35;;;;;;;3.20;1.20;;;;;;;-4.42;100.00;100091.76;104649;1271;59380;-72
2024/01/12 03:09:02;;;;;;;2.00;1.10;;;;;;;-4.49;100.00;100101.70;104719;1266;72222;-73
2024/01/12 03:11:29;;;;;;;2.10;1.10;;;;;;;-4.51;100.00;100110.23;105612;1260;64062;-74
2024/01/12 03:13:55;;;;;;;3.60;1.40;;;;;;;-4.50;100.00;100102.73;105565;1258;239828;-72
2024/01/12 03:16:22;;;;;;;2.10;1.10;;;;;;;-4.55;100.00;100115.21;105807;1253;59209;-75
2024/01/12 03:18:49;;;;;;;2.00;1.50;;;;;;;-4.61;100.00;100119.87;105683;1254;60406;-72
2024/01/12 03:21:17;;;;;;;2.30;1.20;;;;;;;-4.71;100.00;100122.99;105714;1257;72233;-74
2024/01/12 03:23:44;;;;;;;7.20;1.40;;;;;;;-4.84;100.00;100114.02;105761;1262;64046;-74
2024/01/12 03:26:11;;;;;;;5.40;1.50;;;;;;;-4.98;100.00;100125.35;105808;1255;72652;-73
2024/01/12 03:28:38;;;;;;;1.80;1.30;;;;;;;-5.16;100.00;100124.40;105958;1256;60494;-71
2024/01/12 03:31:08;;;;;;;3.20;1.60;;;;;;;-5.37;100.00;100132.14;105970;1255;60027;-73
2024/01/12 03:33:36;;;;;;;1.90;1.00;;;;;;;-5.50;100.00;100142.90;105791;1257;72958;-72
2024/01/12 03:36:07;;;;;;;2.00;1.00;;;;;;;-5.59;100.00;100155.02;105761;1255;63834;-73
2024/01/12 03:38:34;;;;;;;4.20;1.20;;;;;;;-5.63;100.00;100163.70;105744;1258;72718;-73
2024/01/12 03:41:04;;;;;;;2.30;1.30;;;;;;;-5.65;100.00;100166.95;106339;1251;59775;-74
2024/01/12 03:43:31;;;;;;;2.00;1.80;;;;;;;-5.67;100.00;100174.95;106269;1256;60091;-71
2024/01/12 03:45:58;;;;;;;1.40;0.80;;;;;;;-5.69;100.00;100181.23;105910;1251;72968;-73
2024/01/12 03:48:25;;;;;;;2.10;1.20;;;;;;;-5.73;100.00;100184.83;105915;1254;64864;-72
2024/01/12 03:50:52;;;;;;;3.60;1.30;;;;;;;-5.80;100.00;100194.70;105826;1256;72402;-73
2024/01/12 03:53:19;;;;;;;2.70;1.00;;;;;;;-5.84;100.00;100205.60;105780;1256;60961;-73
2024/01/12 03:55:45;;;;;;;3.40;1.50;;;;;;;-5.90;100.00;100215.30;105820;1256;59589;-74
2024/01/12 03:58:13;;;;;;;1.90;1.10;;;;;;;-5.96;100.00;100212.08;105930;1256;72955;-74
2024/01/12 04:00:39;;;;;;;0.90;0.90;;;;;;;-5.94;100.00;100214.29;105819;1256;62378;-72
2024/01/12 04:03:07;;;;;;;2.20;1.10;;;;;;;-5.89;100.00;100204.58;105746;1256;72683;-73
2024/01/12 04:05:34;;;;;;;1.40;1.00;;;;;;;-5.82;100.00;100214.27;105776;1255;61051;-75
2024/01/12 04:08:01;;;;;;;2.60;1.10;;;;;;;-5.80;100.00;100217.00;105819;1255;59691;-73
2024/01/12 04:10:28;;;;;;;1.20;0.90;;;;;;;-5.84;100.00;100225.52;105989;1255;72933;-74
2024/01/12 04:12:56;;;;;;;2.10;0.90;;;;;;;-5.91;100.00;100240.82;105978;1256;63883;-74
2024/01/12 04:15:23;;;;;;;0.80;0.80;;;;;;;-5.95;100.00;100252.08;105672;1256;72608;-72
2024/01/12 04:17:52;;;;;;;2.30;1.30;;;;;;;-5.98;100.00;100266.04;105716;1257;61192;-74
2024/01/12 04:20:19;;;;;;;7.50;0.90;;;;;;;-5.98;100.00;100272.86;105890;1256;60137;-74
2024/01/12 04:22:46;;;;;;;1.10;1.00;;;;;;;-6.01;100.00;100280.33;105698;1251;72999;-73
2024/01/12 04:25:13;;;;;;;3.10;1.30;;;;;;;-6.02;100.00;100283.71;105878;1255;64422;-74
2024/01/12 04:27:41;;;;;;;1.00;0.90;;;;;;;-6.03;100.00;100278.10;105771;1255;72573;-73
2024/01/12 04:30:09;;;;;;;2.30;1.20;;;;;;;-6.07;100.00;100287.96;105857;1256;61033;-73
2024/01/12 04:32:36;;;;;;;0.80;0.80;;;;;;;-6.10;100.00;100295.28;105894;1253;60268;-72
2024/01/12 04:35:03;;;;;;;1.50;1.40;;;;;;;-6.11;100.00;100293.05;105848;1256;73068;-75
2024/01/12 04:37:30;;;;;;;1.30;1.00;;;;;;;-6.22;100.00;100301.71;105859;1255;63859;-73
2024/01/12 04:39:57;;;;;;;1.40;0.90;;;;;;;-6.34;100.00;100305.91;105983;1256;71390;-74
2024/01/12 04:42:24;;;;;;;1.30;0.90;;;;;;;-6.47;100.00;100308.42;106013;1255;61268;-74
2024/01/12 04:44:52;;;;;;;1.30;0.80;;;;;;;-6.58;100.00;100315.68;105925;1252;60272;-74
2024/01/12 04:47:19;;;;;;;1.40;1.00;;;;;;;-6.66;100.00;100329.92;105908;1255;73098;-74
2024/01/12 04:49:46;;;;;;;4.50;1.20;;;;;;;-6.76;100.00;100334.28;105879;1251;63999;-73
2024/01/12 04:52:14;;;;;;;1.80;1.10;;;;;;;-6.78;100.00;100340.73;105850;1251;72490;-72
2024/01/12 04:54:41;;;;;;;1.00;0.90;;;;;;;-6.77;100.00;100347.02;105743;1255;59673;-72
2024/01/12 04:57:09;;;;;;;2.30;1.10;;;;;;;-6.82;100.00;100355.15;105854;1256;60459;-74
2024/01/12 04:59:36;;;;;;;1.80;1.10;;;;;;;-6.83;100.00;100357.69;105681;1251;72828;-75
2024/01/12 05:02:03;;;;;;;3.00;1.30;;;;;;;-6.85;100.00;100366.34;105780;1256;62297;-74
2024/01/12 05:04:31;;;;;;;2.70;1.30;;;;;;;-6.91;100.00;100370.73;105645;1251;72409;-75
2024/01/12 05:06:58;;;;;;;2.10;1.00;;;;;;;-6.98;100.00;100380.17;105950;1255;61271;-73
2024/01/12 05:09:26;;;;;;;2.90;2.20;;;;;;;-7.06;100.00;100381.31;105870;1256;59733;-75
2024/01/12 05:11:53;;;;;;;2.90;1.30;;;;;;;-7.12;100.00;100380.92;105867;1251;73217;-74
2024/01/12 05:14:20;;;;;;;1.20;1.10;;;;;;;-7.17;100.00;100387.17;105937;1255;63950;-73
2024/01/12 05:16:47;;;;;;;4.60;1.60;;;;;;;-7.20;100.00;100391.73;105804;1256;71039;-75
2024/01/12 05:19:14;;;;;;;1.30;0.90;;;;;;;-7.21;100.00;100388.15;105796;1256;61875;-76
2024/01/12 05:21:41;;;;;;;1.10;1.10;;;;;;;-7.24;100.00;100393.23;105764;1256;60240;-75
2024/01/12 05:24:08;;;;;;;2.80;0.80;;;;;;;-7.29;100.00;100401.34;105763;1251;73243;-75
2024/01/12 05:26:36;;;;;;;0.90;0.90;;;;;;;-7.34;100.00;100405.20;105840;1257;63795;-75
2024/01/12 05:29:05;;;;;;;1.60;1.10;;;;;;;-7.40;100.00;100410.41;106007;1255;72708;-75
2024/01/12 05:31:34;;;;;;;1.20;0.90;;;;;;;-7.45;100.00;100417.30;105724;1256;59735;-75
2024/01/12 05:34:01;;;;;;;0.80;0.80;;;;;;;-7.50;100.00;100418.63;105847;1256;59530;-76
2024/01/12 05:36:29;;;;;;;3.60;1.20;;;;;;;-7.54;100.00;100424.87;105899;1255;72949;-76
2024/01/12 05:38:57;;;;;;;3.00;1.50;;;;;;;-7.55;100.00;100437.23;105929;1257;63976;-74
2024/01/12 05:41:24;;;;;;;3.80;1.60;;;;;;;-7.56;100.00;100444.89;105975;1257;72667;-74
2024/01/12 05:43:52;;;;;;;1.90;1.20;;;;;;;-7.57;100.00;100446.05;105907;1256;61685;-75
2024/01/12 05:46:19;;;;;;;2.60;1.10;;;;;;;-7.55;100.00;100452.52;105909;1253;60199;-73
2024/01/12 05:48:46;;;;;;;1.70;1.50;;;;;;;-7.57;100.00;100459.61;105742;1251;73106;-75
2024/01/12 05:51:13;;;;;;;3.40;1.00;;;;;;;-7.61;100.00;100457.73;105675;1258;63846;-75
2024/01/12 05:53:40;;;;;;;1.20;1.10;;;;;;;-7.63;100.00;100465.67;105746;1256;73071;-76
2024/01/12 05:56:07;;;;;;;2.40;1.50;;;;;;;-7.69;100.00;100466.45;105622;1258;61004;-74
2024/01/12 05:58:34;;;;;;;1.50;1.40;;;;;;;-7.69;100.00;100481.73;105844;1256;60441;-74
2024/01/12 06:01:02;;;;;;;1.90;1.50;;;;;;;-7.69;100.00;100481.04;105775;1257;71968;-75
2024/01/12 06:03:29;;;;;;;1.50;1.40;;;;;;;-7.68;100.00;100486.66;105867;1264;63868;-73
2024/01/12 06:05:55;;;;;;;1.50;1.30;;;;;;;-7.69;100.00;100485.30;105777;1258;72404;-74
2024/01/12 06:08:24;;;;;;;1.60;1.40;;;;;;;-7.73;100.00;100488.30;105901;1256;61683;-74
2024/01/12 06:10:50;;;;;;;2.30;1.60;;;;;;;-7.78;100.00;100490.62;106484;1251;59628;-73
2024/01/12 06:13:17;;;;;;;1.40;1.20;;;;;;;-7.83;100.00;100490.55;107968;1251;71629;-73
2024/01/12 06:15:45;;;;;;;2.70;1.80;;;;;;;-7.85;100.00;100493.59;108290;1251;62449;-73
2024/01/12 06:18:12;;;;;;;2.20;1.90;;;;;;;-7.83;100.00;100502.42;107966;1255;72582;-75
2024/01/12 06:20:40;;;;;;;2.30;1.80;;;;;;;-7.76;100.00;100510.32;107887;1251;60781;-73
2024/01/12 06:23:08;;;;;;;6.30;2.60;;;;;;;-7.72;100.00;100514.44;106099;1251;59727;-75
2024/01/12 06:25:36;;;;;;;2.90;1.80;;;;;;;-7.71;100.00;100517.35;105883;1256;73088;-74
2024/01/12 06:28:04;;;;;;;2.00;1.70;;;;;;;-7.72;100.00;100515.80;105991;1251;63894;-74
2024/01/12 06:30:33;;;;;;;2.00;1.40;;;;;;;-7.74;100.00;100523.07;105985;1256;72617;-74
2024/01/12 06:33:00;;;;;;;4.80;2.00;;;;;;;-7.74;100.00;100521.88;106061;1256;61992;-74
2024/01/12 06:35:28;;;;;;;1.20;1.10;;;;;;;-7.73;100.00;100523.26;105748;1253;60343;-74
2024/01/12 06:37:57;;;;;;;2.70;2.20;;;;;;;-7.73;100.00;100523.41;106318;1251;72836;-74
2024/01/12 06:40:24;;;;;;;3.30;1.40;;;;;;;-7.73;100.00;100523.77;105905;1257;63925;-75
2024/01/12 06:42:53;;;;;;;1.40;1.30;;;;;;;-7.73;100.00;100529.03;105752;1257;72736;-75
2024/01/12 06:45:21;;;;;;;2.10;1.50;;;;;;;-7.73;100.00;100532.42;105945;1255;60566;-75
2024/01/12 06:47:48;;;;;;;2.80;2.00;;;;;;;-7.70;100.00;100541.96;105906;1257;61219;-73
2024/01/12 06:50:15;;;;;;;1.90;1.30;;;;;;;-7.66;100.00;100546.42;105852;1256;73039;-73
2024/01/12 06:52:43;;;;;;;2.30;1.90;;;;;;;-7.68;100.00;100541.64;105805;1255;62748;-72
2024/01/12 06:55:09;;;;;;;2.00;1.40;;;;;;;-7.69;100.00;100547.40;105790;1255;71503;-73
2024/01/12 06:57:36;;;;;;;1.70;1.60;;;;;;;-7.69;100.00;100558.27;105793;1256;62116;-76
2024/01/12 07:00:06;;;;;;;2.10;1.70;;;;;;;-7.62;100.00;100563.61;105904;1252;59725;-75
2024/01/12 07:02:34;;;;;;;3.50;1.60;;;;;;;-7.55;100.00;100567.44;105975;1256;71583;-74
2024/01/12 07:05:01;;;;;;;2.30;1.40;;;;;;;-7.56;100.00;100575.58;105840;1256;63881;-74
2024/01/12 07:07:28;;;;;;;2.10;1.20;;;;;;;-7.60;100.00;100575.01;105789;1251;72647;-73
2024/01/12 07:09:56;;;;;;;2.10;1.60;;;;;;;-7.63;100.00;100573.61;105830;1257;60788;-75
2024/01/12 07:12:23;;;;;;;1.50;1.40;;;;;;;-7.66;100.00;100580.54;105933;1258;60508;-75
2024/01/12 07:14:52;;;;;;;1.50;1.30;;;;;;;-7.66;100.00;100583.75;105838;1256;73864;-75
2024/01/12 07:17:18;;;;;;;3.30;1.70;;;;;;;-7.65;100.00;100586.65;105967;1256;63696;-75
2024/01/12 07:19:46;;;;;;;2.20;1.40;;;;;;;-7.68;100.00;100588.83;105896;1257;72597;-75
2024/01/12 07:22:13;;;;;;;3.20;1.50;;;;;;;-7.75;100.00;100593.30;105797;1256;62097;-74
2024/01/12 07:24:40;;;;;;;1.00;1.00;;;;;;;-7.81;100.00;100599.51;105868;1251;60906;-74
2024/01/12 07:27:10;;;;;;;1.30;1.10;;;;;;;-7.81;100.00;100601.70;105832;1256;73828;-75
2024/01/12 07:29:37;;;;;;;4.70;1.70;;;;;;;-7.87;100.00;100601.96;105983;1257;64051;-75
2024/01/12 07:32:04;;;;;;;2.40;1.20;;;;;;;-7.91;100.00;100602.92;105779;1251;73119;-72
2024/01/12 07:34:31;;;;;;;1.10;1.10;;;;;;;-7.94;100.00;100613.06;105847;1258;62091;-73
2024/01/12 07:36:58;;;;;;;5.10;1.60;;;;;;;-7.90;100.00;100622.45;105724;1253;60448;-75
2024/01/12 07:39:25;;;;;;;2.90;1.30;;;;;;;-7.81;100.00;100619.69;105798;1255;73937;-75
2024/01/12 07:41:54;;;;;;;1.40;1.30;;;;;;;-7.76;100.00;100622.14;105844;1252;64082;-76
2024/01/12 07:44:22;;;;;;;2.40;1.50;;;;;;;-7.77;100.00;100623.84;105830;1256;72893;-74
2024/01/12 07:46:48;;;;;;;2.90;1.60;;;;;;;-7.76;100.00;100628.26;105766;1257;60540;-74
2024/01/12 07:49:15;;;;;;;1.70;1.50;;;;;;;-7.79;100.00;100624.64;105787;1252;60448;-74
2024/01/12 07:51:44;;;;;;;2.60;1.60;;;;;;;-7.82;100.00;100628.67;105921;1256;72400;-75
2024/01/12 07:54:18;;;;;;;2.20;1.30;;;;;;;-7.84;100.00;100635.27;105971;1256;64016;-74
2024/01/12 07:56:45;;;;;;;1.70;1.10;;;;;;;-7.83;100.00;100635.28;105922;1251;72702;-74
2024/01/12 07:59:13;;;;;;;2.30;1.10;;;;;;;-7.82;100.00;100635.63;105765;1255;60525;-76
2024/01/12 08:01:44;;;;;;;3.30;1.50;;;;;;;-7.83;100.00;100639.34;105670;1257;60654;-75
2024/01/12 08:04:21;;;;;;;2.50;1.60;;;;;;;-7.83;100.00;100642.58;105975;1251;75015;-75
2024/01/12 08:07:15;;;;;;;1.40;1.20;;;;;;;-7.80;100.00;100649.75;105821;1255;64847;-75
2024/01/12 08:09:45;;;;;;;7.50;1.60;;;;;;;-7.72;100.00;100646.48;105835;1257;71384;-75
2024/01/12 08:12:13;;;;;;;3.00;1.50;;;;;;;-7.66;100.00;100651.48;105862;1251;63141;-75
2024/01/12 08:14:42;;;;;;;2.30;1.40;;;;;;;-7.63;100.00;100656.60;105739;1257;60562;-74
2024/01/12 08:17:13;;;;;;;2.50;1.20;;;;;;;-7.62;100.00;100660.20;105751;1251;73048;-74
2024/01/12 08:19:40;;;;;;;1.30;1.20;;;;;;;-7.58;100.00;100662.64;105795;1251;64292;-76
2024/01/12 08:22:07;;;;;;;2.50;1.40;;;;;;;-7.53;100.00;100662.87;105832;1256;73070;-76
2024/01/12 08:24:34;;;;;;;1.90;1.80;;;;;;;-7.47;100.00;100666.35;105730;1257;62023;-75
2024/01/12 08:27:01;;;;;;;2.10;1.40;;;;;;;-7.43;100.00;100666.92;105701;1256;60460;-76
2024/01/12 08:29:33;;;;;;;2.30;2.20;;;;;;;-7.39;100.00;100671.38;105827;1252;73613;-76
2024/01/12 08:32:02;;;;;;;1.30;1.20;;;;;;;-7.36;100.00;100671.25;105811;1251;64053;-74
2024/01/12 08:34:36;;;;;;;1.40;1.30;;;;;;;-7.33;100.00;100676.05;106021;1251;71634;-75
2024/01/12 08:37:06;;;;;;;2.40;1.40;;;;;;;-7.40;100.00;100674.09;105724;1258;61920;-73
2024/01/12 08:39:39;;;;;;;1.10;1.10;;;;;;;-7.44;100.00;100673.02;105732;1256;60541;-74
2024/01/12 08:42:07;;;;;;;3.60;2.90;;;;;;;-7.38;100.00;100676.31;105971;1256;73858;-75
2024/01/12 08:44:38;;;;;;;1.30;1.20;;;;;;;-7.27;100.00;100675.11;105676;1260;64976;-75
2024/01/12 08:47:08;;;;;;;2.00;1.60;;;;;;;-7.22;100.00;100673.32;105726;1256;72367;-75
2024/01/12 08:49:37;;;;;;;2.20;1.10;;;;;;;-7.22;100.00;100671.96;105849;1251;61592;-75
2024/01/12 08:52:08;;;;;;;1.80;1.50;;;;;;;-7.20;100.00;100674.02;106046;1252;60600;-75
2024/01/12 08:54:38;;;;;;;2.00;1.20;;;;;;;-7.13;100.00;100672.92;105844;1251;72337;-73
2024/01/12 08:57:05;;;;;;;2.20;1.60;;;;;;;-7.11;100.00;100676.86;106142;1251;64046;-72
2024/01/12 08:59:33;;;;;;;3.20;2.00;;;;;;;-7.22;100.00;100680.96;106502;1251;73731;-74
2024/01/12 09:02:00;;;;;;;4.40;2.20;;;;;;;-7.31;100.00;100680.49;106172;1251;61149;-74
2024/01/12 09:04:28;;;;;;;3.00;1.60;;;;;;;-7.36;100.00;100680.42;105985;1256;61107;-75
2024/01/12 09:06:56;;;;;;;3.40;1.90;;;;;;;-7.35;100.00;100675.52;106003;1257;73853;-75
2024/01/12 09:09:25;;;;;;;2.50;1.50;;;;;;;-7.30;100.00;100674.06;105948;1256;63721;-75
2024/01/12 09:11:52;;;;;;;2.20;1.70;;;;;;;-7.22;100.00;100672.98;105981;1256;71313;-74
2024/01/12 09:14:20;;;;;;;1.90;1.30;;;;;;;-7.21;100.00;100677.23;105881;1251;61160;-75
2024/01/12 09:16:48;;;;;;;3.60;2.40;;;;;;;-7.27;100.00;100674.61;105761;1251;60547;-73
2024/01/12 09:19:16;;;;;;;3.70;1.80;;;;;;;-7.27;100.00;100680.55;105833;1251;73826;-74
2024/01/12 09:21:44;;;;;;;3.00;1.90;;;;;;;-7.20;100.00;100683.54;105892;1255;63764;-76
2024/01/12 09:24:12;;;;;;;1.60;1.50;;;;;;;-7.08;100.00;100680.62;105956;1257;73412;-75
2024/01/12 09:26:39;;;;;;;1.80;1.60;;;;;;;-6.99;100.00;100686.52;105907;1255;61206;-74
2024/01/12 09:29:06;;;;;;;2.20;1.90;;;;;;;-6.93;100.00;100689.99;105928;1251;60425;-75
2024/01/12 09:31:33;;;;;;;3.10;1.70;;;;;;;-6.91;100.00;100691.38;105790;1254;73816;-74
2024/01/12 09:34:00;;;;;;;3.90;1.60;;;;;;;-6.92;100.00;100689.14;105729;1251;62873;-75
2024/01/12 09:36:27;;;;;;;3.10;1.50;;;;;;;-6.89;100.00;100695.14;105911;1251;72634;-75
2024/01/12 09:38:56;;;;;;;2.10;1.70;;;;;;;-6.81;100.00;100699.14;106597;1251;60460;-74
2024/01/12 09:41:45;;;;;;;2.90;2.10;;;;;;;-6.72;100.00;100700.79;107160;1255;60557;-74
2024/01/12 09:44:20;;;;;;;1.80;1.60;;;;;;;-6.69;100.00;100700.13;107619;1253;71700;-73
2024/01/12 09:46:58;;;;;;;2.00;1.80;;;;;;;-6.65;100.00;100707.50;107221;1251;63022;-76
2024/01/12 09:49:27;;;;;;;1.50;1.10;;;;;;;-6.67;99.87;100715.80;105867;1257;72663;-75
2024/01/12 09:52:07;;;;;;;2.30;1.20;;;;;;;-6.72;97.64;100714.73;105729;1257;61340;-75
2024/01/12 09:54:35;;;;;;;1.30;1.20;;;;;;;-6.73;98.07;100714.38;106080;1255;60515;-74
2024/01/12 09:57:30;;;;;;;2.60;1.40;;;;;;;-6.72;97.60;100711.48;106149;1256;71505;-73
2024/01/12 10:00:02;;;;;;;2.40;1.40;;;;;;;-6.67;95.45;100713.25;106487;1251;63190;-74
2024/01/12 10:02:35;;;;;;;1.40;0.90;;;;;;;-6.71;91.62;100712.70;106287;1251;71175;-74
2024/01/12 10:05:02;;;;;;;1.00;1.00;;;;;;;-6.82;88.97;100715.95;106074;1251;61931;-75
2024/01/12 10:07:35;;;;;;;4.50;1.40;;;;;;;-6.95;90.16;100714.78;106952;1256;60473;-75
2024/01/12 10:10:06;;;;;;;0.90;0.90;;;;;;;-7.04;91.69;100717.54;107692;1251;71904;-73
2024/01/12 10:12:37;;;;;;;2.10;1.60;;;;;;;-7.09;92.33;100719.35;107430;1251;64298;-72
2024/01/12 10:15:07;;;;;;;2.30;1.00;;;;;;;-7.10;93.22;100720.70;108238;1251;70639;-72
2024/01/12 10:17:35;;;;;;;1.60;1.20;;;;;;;-7.12;91.11;100722.03;108897;1251;60838;-75
2024/01/12 10:20:05;;;;;;;1.70;1.20;;;;;;;-7.13;90.08;100722.86;109196;1251;57973;-73
2024/01/12 10:22:34;;;;;;;1.50;0.90;;;;;;;-7.13;90.23;100718.63;107662;1251;72803;-74
2024/01/12 10:25:05;;;;;;;2.30;1.60;;;;;;;-7.12;91.21;100727.30;106205;1251;63815;-74
2024/01/12 10:27:34;;;;;;;1.70;1.00;;;;;;;-7.05;91.90;100732.99;106366;1251;72951;-72
2024/01/12 10:30:02;;;;;;;1.20;1.10;;;;;;;-6.99;88.02;100729.52;106536;1256;61218;-75
2024/01/12 10:32:36;;;;;;;2.20;1.10;;;;;;;-7.00;88.60;100729.83;106260;1252;61598;-73
2024/01/12 10:35:04;;;;;;;1.20;0.90;;;;;;;-7.08;84.47;100727.18;105918;1257;73750;-75
2024/01/12 10:37:33;;;;;;;1.20;1.00;;;;;;;-7.18;85.95;100729.08;106067;1255;64009;-75
2024/01/12 10:40:04;;;;;;;3.00;1.00;;;;;;;-7.22;85.38;100729.18;106052;1251;72475;-75
2024/01/12 10:42:31;;;;;;;2.00;1.30;;;;;;;-7.27;85.48;100735.06;106007;1257;62145;-74
2024/01/12 10:45:02;;;;;;;2.00;0.80;;;;;;;-7.26;87.12;100739.66;105805;1251;60486;-75
2024/01/12 10:47:32;;;;;;;2.10;1.20;;;;;;;-7.24;86.67;100738.17;106248;1251;74023;-74
2024/01/12 10:50:02;;;;;;;1.70;1.00;;;;;;;-7.24;86.90;100738.17;106129;1257;64008;-75
2024/01/12 10:52:54;;;;;;;1.60;0.80;;;;;;;-7.21;86.60;100739.05;106377;1251;72795;-74
2024/01/12 10:55:22;;;;;;;1.70;0.90;;;;;;;-7.22;82.27;100731.56;106312;1251;60592;-74
2024/01/12 10:57:49;;;;;;;1.00;0.80;;;;;;;-7.23;82.56;100742.77;106017;1251;60573;-75
2024/01/12 11:00:16;;;;;;;0.90;0.90;;;;;;;-7.21;83.79;100743.32;106059;1256;72547;-74
2024/01/12 11:02:43;;;;;;;1.20;1.10;;;;;;;-7.16;84.41;100743.55;105896;1257;63927;-75
2024/01/12 11:05:13;;;;;;;1.30;0.80;;;;;;;-7.05;84.54;100745.23;106131;1257;72141;-75
2024/01/12 11:07:45;;;;;;;2.20;1.70;;;;;;;-6.97;83.32;100748.05;106039;1255;61365;-73
2024/01/12 11:10:12;;;;;;;1.40;0.90;;;;;;;-6.88;82.52;100751.91;106171;1251;60463;-73
2024/01/12 11:12:41;;;;;;;2.40;1.20;;;;;;;-6.74;83.27;100755.99;106171;1251;73882;-74
2024/01/12 11:15:08;;;;;;;3.10;1.20;;;;;;;-6.59;82.76;100760.09;106110;1251;63568;-75
2024/01/12 11:17:36;;;;;;;2.70;2.20;;;;;;;-6.45;82.24;100761.96;106133;1251;72623;-74
2024/01/12 11:20:13;;;;;;;1.50;1.40;;;;;;;-6.32;81.07;100763.13;106081;1256;60547;-74